Time;durP1;ratioP1;P1;durP2;ratioP2;P2;SDS_P1;SDS_P2;PMS_P1;PMS_P2;Temp;Humidity;BMP_temperature;BMP_pressure;BME280_temperature;BME280_humidity;BME280_pressure;Samples;Min_cycle;Max_cycle;Signal;HPM_P1;HPM_P2
2022/05/17 00:01:22;;;;;;;4.20;2.60;;;;;;;13.06;100.00;99113.59;5011338;28;20223;-61
2022/05/17 00:03:49;;;;;;;8.00;3.10;;;;;;;13.10;100.00;99113.13;5013879;28;20227;-61
2022/05/17 00:06:16;;;;;;;7.73;2.90;;;;;;;13.05;100.00;99104.91;5013805;28;20198;-62
2022/05/17 00:08:43;;;;;;;6.00;3.03;;;;;;;13.03;100.00;99116.53;4996088;28;20572;-60
2022/05/17 00:11:11;;;;;;;4.80;2.47;;;;;;;13.04;100.00;99112.94;5013441;28;20540;-60
2022/05/17 00:13:39;;;;;;;7.57;2.73;;;;;;;13.02;100.00;99107.84;5013679;28;20202;-60
2022/05/17 00:16:06;;;;;;;5.97;2.47;;;;;;;13.01;100.00;99116.66;5012042;28;20212;-61
2022/05/17 00:18:34;;;;;;;10.10;3.07;;;;;;;12.99;100.00;99113.38;4996204;28;20204;-62
2022/05/17 00:21:01;;;;;;;7.90;3.73;;;;;;;13.01;100.00;99118.47;5011735;28;20208;-60
2022/05/17 00:23:28;;;;;;;9.53;3.60;;;;;;;12.97;100.00;99112.72;5012330;28;20253;-61
2022/05/17 00:25:56;;;;;;;6.00;2.90;;;;;;;12.96;100.00;99116.31;5013900;28;20206;-61
2022/05/17 00:28:23;;;;;;;5.17;3.47;;;;;;;12.94;100.00;99111.25;5013261;28;20207;-63
2022/05/17 00:30:52;;;;;;;10.53;3.37;;;;;;;12.97;100.00;99112.72;4996013;28;20204;-60
2022/05/17 00:33:21;;;;;;;6.37;2.83;;;;;;;13.03;100.00;99119.16;5013167;28;20224;-60
2022/05/17 00:35:48;;;;;;;6.57;3.20;;;;;;;12.98;100.00;99116.97;5013155;28;20291;-61
2022/05/17 00:38:16;;;;;;;11.47;3.10;;;;;;;13.03;100.00;99117.34;4994982;28;20205;-60
2022/05/17 00:40:43;;;;;;;7.13;3.17;;;;;;;12.97;100.00;99118.78;5004342;28;20196;-60
2022/05/17 00:43:14;;;;;;;7.43;3.20;;;;;;;12.95;100.00;99104.19;5002988;28;20212;-59
2022/05/17 00:45:47;;;;;;;8.33;3.40;;;;;;;12.97;100.00;99112.72;5013120;28;20270;-59
2022/05/17 00:48:19;;;;;;;9.67;2.97;;;;;;;12.98;100.00;99116.97;5013986;28;20274;-59
2022/05/17 00:51:04;;;;;;;5.43;3.10;;;;;;;12.96;100.00;99113.69;5013823;28;20324;-59
2022/05/17 00:53:34;;;;;;;8.17;3.07;;;;;;;12.93;100.00;99114.00;5013688;28;20265;-59
2022/05/17 00:56:08;;;;;;;7.60;3.00;;;;;;;12.90;100.00;99111.69;5013807;28;20309;-59
2022/05/17 00:58:42;;;;;;;7.13;2.73;;;;;;;12.95;100.00;99112.88;5013976;28;20198;-61
2022/05/17 01:01:12;;;;;;;6.83;3.17;;;;;;;12.98;100.00;99106.50;5013888;28;20199;-59
2022/05/17 01:03:47;;;;;;;5.03;3.40;;;;;;;13.00;100.00;99099.31;4996063;28;20254;-59
2022/05/17 01:06:16;;;;;;;6.43;2.87;;;;;;;13.05;100.00;99098.84;5013949;28;20226;-59
2022/05/17 01:08:43;;;;;;;4.93;2.80;;;;;;;13.06;100.00;99106.53;5013729;28;20245;-59
2022/05/17 01:11:11;;;;;;;5.90;3.10;;;;;;;13.14;100.00;99108.41;5012875;28;20672;-62
2022/05/17 01:16:24;;;;;;;8.97;3.27;;;;;;;13.24;100.00;99105.66;5013393;28;20302;-60
2022/05/17 01:18:52;;;;;;;7.70;3.30;;;;;;;13.33;100.00;99107.34;4995642;28;20681;-60
2022/05/17 01:21:21;;;;;;;5.93;2.93;;;;;;;13.39;100.00;99106.72;5013003;28;20193;-60
2022/05/17 01:23:48;;;;;;;7.27;2.93;;;;;;;13.33;100.00;99106.50;5013192;28;20603;-60
2022/05/17 01:26:18;;;;;;;10.90;3.47;;;;;;;13.21;100.00;99103.34;5013164;28;20196;-59
2022/05/17 01:28:46;;;;;;;7.33;3.20;;;;;;;13.24;100.00;99103.88;5013352;28;20195;-60
2022/05/17 01:31:13;;;;;;;5.97;2.87;;;;;;;13.25;100.00;99102.06;5012791;28;20271;-60
2022/05/17 01:33:41;;;;;;;8.07;3.07;;;;;;;13.26;100.00;99103.72;4995209;28;20200;-59
2022/05/17 01:36:10;;;;;;;5.70;3.30;;;;;;;13.27;100.00;99102.72;4995168;28;20776;-60
2022/05/17 01:38:40;;;;;;;7.87;3.00;;;;;;;13.25;100.00;99099.44;4995158;28;20185;-59
2022/05/17 01:41:07;;;;;;;8.17;3.10;;;;;;;13.16;100.00;99103.84;5012766;28;20190;-59
2022/05/17 01:43:34;;;;;;;6.47;3.10;;;;;;;13.10;100.00;99102.63;5012775;28;20615;-58
2022/05/17 01:46:05;;;;;;;5.47;3.10;;;;;;;13.05;100.00;99093.63;5012781;28;20173;-60
2022/05/17 01:48:32;;;;;;;7.07;3.37;;;;;;;13.06;100.00;99090.81;5012716;28;20202;-58
2022/05/17 01:51:00;;;;;;;5.87;3.30;;;;;;;13.02;100.00;99097.34;4994497;28;20709;-60
2022/05/17 01:53:27;;;;;;;7.07;2.90;;;;;;;12.97;100.00;99091.75;4984193;28;20208;-60
2022/05/17 01:55:55;;;;;;;10.13;3.27;;;;;;;12.95;100.00;99094.53;4994785;28;20207;-60
2022/05/17 01:58:22;;;;;;;6.57;3.60;;;;;;;12.89;100.00;99097.78;5011335;28;20199;-60
2022/05/17 02:00:50;;;;;;;8.17;2.70;;;;;;;12.90;100.00;99101.22;5011348;28;20224;-60
2022/05/17 02:03:20;;;;;;;5.07;3.20;;;;;;;12.87;100.00;99101.50;5010860;28;20208;-59
2022/05/17 02:05:47;;;;;;;11.33;3.60;;;;;;;12.83;100.00;99101.81;5011254;28;20192;-60
2022/05/17 02:08:14;;;;;;;5.80;3.20;;;;;;;12.83;100.00;99098.38;5011243;28;20705;-60
2022/05/17 02:10:42;;;;;;;7.13;3.43;;;;;;;12.83;100.00;99099.19;5011328;28;20203;-60
2022/05/17 02:13:10;;;;;;;6.27;3.53;;;;;;;12.80;100.00;99096.06;5010800;28;20306;-60
2022/05/17 02:15:37;;;;;;;7.83;3.03;;;;;;;12.75;100.00;99098.34;4978213;28;20317;-59
2022/05/17 02:18:05;;;;;;;5.50;2.80;;;;;;;12.79;100.00;99092.63;5011197;28;20193;-60
2022/05/17 02:20:34;;;;;;;6.07;3.43;;;;;;;12.72;100.00;99094.22;5011095;28;20191;-60
2022/05/17 02:23:02;;;;;;;4.63;3.27;;;;;;;12.68;100.00;99096.31;5010801;28;20636;-60
2022/05/17 02:25:29;;;;;;;6.50;3.43;;;;;;;12.71;100.00;99095.22;5010816;28;21029;-60
2022/05/17 02:27:57;;;;;;;9.03;3.67;;;;;;;12.61;100.00;99097.91;5011796;28;20667;-60
2022/05/17 02:30:26;;;;;;;4.83;3.00;;;;;;;12.59;100.00;99104.28;5011219;28;20195;-58
2022/05/17 02:32:53;;;;;;;10.93;4.10;;;;;;;12.58;100.00;99108.69;5010949;28;20269;-57
2022/05/17 02:35:22;;;;;;;7.73;3.83;;;;;;;12.61;100.00;99103.16;5011202;28;20281;-58
2022/05/17 02:37:49;;;;;;;8.80;3.50;;;;;;;12.61;100.00;99110.19;5011377;28;20560;-57
2022/05/17 02:40:16;;;;;;;9.37;3.83;;;;;;;12.65;100.00;99106.28;5011337;28;20212;-58
2022/05/17 02:42:43;;;;;;;6.90;3.50;;;;;;;12.70;100.00;99102.22;5011554;28;20215;-58
2022/05/17 02:45:11;;;;;;;8.50;3.60;;;;;;;12.78;100.00;99108.50;5003762;28;20221;-58
2022/05/17 02:47:40;;;;;;;12.23;4.40;;;;;;;12.79;100.00;99110.97;5011997;28;20202;-59
2022/05/17 02:50:09;;;;;;;5.77;4.17;;;;;;;12.87;100.00;99109.38;4981999;28;20592;-59
2022/05/17 02:52:36;;;;;;;9.13;3.43;;;;;;;12.78;100.00;99114.56;5002152;28;20210;-59
2022/05/17 02:55:04;;;;;;;8.80;3.83;;;;;;;12.80;100.00;99112.59;5002393;28;20213;-58
2022/05/17 02:57:32;;;;;;;4.67;3.40;;;;;;;12.77;100.00;99122.59;4999473;28;20217;-58
2022/05/17 03:00:00;;;;;;;6.70;3.80;;;;;;;12.68;100.00;99119.09;5004949;28;20277;-59
2022/05/17 03:02:27;;;;;;;6.13;3.97;;;;;;;12.69;100.00;99116.31;5013197;28;20217;-58
2022/05/17 03:04:56;;;;;;;7.03;3.40;;;;;;;12.62;100.00;99117.88;5009961;28;20601;-58
2022/05/17 03:07:23;;;;;;;4.97;3.60;;;;;;;12.62;100.00;99125.75;5005887;28;20192;-58
2022/05/17 03:09:50;;;;;;;6.93;4.07;;;;;;;12.57;100.00;99117.50;5015745;28;20199;-58
2022/05/17 03:12:17;;;;;;;10.57;3.97;;;;;;;12.60;100.00;99124.25;5015150;28;20214;-58
2022/05/17 03:14:44;;;;;;;9.07;4.07;;;;;;;12.52;100.00;99128.47;4997816;28;20204;-58
2022/05/17 03:17:12;;;;;;;6.70;3.30;;;;;;;12.50;100.00;99130.41;4997739;28;20226;-59
2022/05/17 03:19:40;;;;;;;7.87;3.93;;;;;;;12.54;100.00;99128.28;4997673;28;20200;-57
2022/05/17 03:22:26;;;;;;;10.13;4.13;;;;;;;12.57;100.00;99128.00;5015077;28;20219;-59
2022/05/17 03:24:53;;;;;;;9.63;3.60;;;;;;;12.59;100.00;99125.25;5015378;28;20187;-59
2022/05/17 03:27:21;;;;;;;9.60;3.77;;;;;;;12.58;100.00;99129.63;5015247;28;20262;-59
2022/05/17 03:29:48;;;;;;;8.17;3.67;;;;;;;12.58;100.00;99126.22;4997700;28;20236;-59
2022/05/17 03:32:15;;;;;;;6.40;4.27;;;;;;;12.61;100.00;99126.72;5014982;28;20210;-59
2022/05/17 03:34:42;;;;;;;10.37;4.50;;;;;;;12.62;100.00;99132.78;5015146;28;20277;-59
2022/05/17 03:37:10;;;;;;;8.40;4.23;;;;;;;12.59;100.00;99135.72;5015142;28;20252;-58
2022/05/17 03:39:38;;;;;;;9.87;4.10;;;;;;;12.57;100.00;99135.03;5015132;28;20195;-58
2022/05/17 03:42:09;;;;;;;11.10;3.80;;;;;;;12.61;100.00;99144.25;4986700;28;20776;-59
2022/05/17 03:44:36;;;;;;;8.37;4.27;;;;;;;12.62;100.00;99136.22;4998618;28;20194;-59
2022/05/17 03:47:05;;;;;;;8.10;4.27;;;;;;;12.72;100.00;99137.94;5010806;28;20199;-59
2022/05/17 03:49:33;;;;;;;9.70;5.53;;;;;;;12.79;100.00;99136.34;5006201;28;20558;-58
2022/05/17 03:52:00;;;;;;;6.03;3.67;;;;;;;12.79;100.00;99137.16;5007019;28;20230;-58
2022/05/17 03:54:28;;;;;;;5.83;4.30;;;;;;;12.80;100.00;99138.00;5012703;28;20211;-59
2022/05/17 03:56:57;;;;;;;8.23;4.30;;;;;;;12.79;100.00;99137.16;5014035;28;20212;-59
2022/05/17 03:59:24;;;;;;;7.73;3.80;;;;;;;12.83;100.00;99132.44;4994817;28;20210;-59
2022/05/17 04:01:51;;;;;;;11.90;4.43;;;;;;;12.81;100.00;99134.41;5008428;28;20623;-59
2022/05/17 04:04:19;;;;;;;7.97;4.00;;;;;;;12.78;100.00;99135.50;4997098;28;20211;-59
2022/05/17 04:06:47;;;;;;;10.33;4.50;;;;;;;12.83;100.00;99132.44;4996867;28;20195;-62
2022/05/17 04:09:15;;;;;;;10.33;5.33;;;;;;;12.89;100.00;99139.69;5014548;28;20190;-60
2022/05/17 04:11:42;;;;;;;7.20;5.00;;;;;;;12.95;100.00;99138.25;5013632;28;20260;-60
2022/05/17 04:14:11;;;;;;;7.63;5.20;;;;;;;13.09;100.00;99135.06;5013273;28;20191;-60
2022/05/17 04:16:40;;;;;;;9.63;4.77;;;;;;;13.14;100.00;99135.44;4996754;28;20208;-60
2022/05/17 04:19:09;;;;;;;8.27;5.13;;;;;;;13.22;100.00;99139.06;5014937;28;20214;-66
2022/05/17 04:21:37;;;;;;;7.70;4.60;;;;;;;13.25;100.00;99141.38;5014836;28;20207;-61
2022/05/17 04:24:04;;;;;;;10.70;5.13;;;;;;;13.30;100.00;99136.50;5014528;28;20253;-58
2022/05/17 04:26:32;;;;;;;7.90;5.17;;;;;;;13.34;100.00;99140.47;5014884;28;20191;-63
2022/05/17 04:29:00;;;;;;;10.10;4.90;;;;;;;13.41;100.00;99138.03;5014626;28;20641;-59
2022/05/17 04:31:29;;;;;;;8.80;5.10;;;;;;;13.47;100.00;99142.66;4985428;28;20304;-59
2022/05/17 04:33:57;;;;;;;9.33;4.93;;;;;;;13.55;100.00;99152.41;4998382;28;20198;-60
2022/05/17 04:36:24;;;;;;;10.27;5.53;;;;;;;13.62;100.00;99153.41;5004134;28;20284;-60
2022/05/17 04:38:51;;;;;;;9.17;5.03;;;;;;;13.68;100.00;99141.44;5008934;28;20184;-60
2022/05/17 04:41:18;;;;;;;9.83;5.10;;;;;;;13.75;100.00;99147.72;5004445;28;20201;-61
2022/05/17 04:43:46;;;;;;;7.27;5.03;;;;;;;13.78;100.00;99142.16;5006437;28;20253;-59
2022/05/17 04:46:15;;;;;;;10.50;5.70;;;;;;;13.90;100.00;99150.53;5005813;28;20287;-60
2022/05/17 04:48:43;;;;;;;8.53;5.17;;;;;;;14.02;100.00;99157.13;5005657;28;20847;-61
2022/05/17 04:51:14;;;;;;;9.23;5.40;;;;;;;14.13;100.00;99155.19;4987218;28;20196;-59
2022/05/17 04:53:43;;;;;;;8.63;5.40;;;;;;;14.22;100.00;99156.06;4987938;28;20210;-61
2022/05/17 04:56:11;;;;;;;11.23;6.30;;;;;;;14.28;100.00;99156.22;5013023;28;20200;-61
2022/05/17 04:58:40;;;;;;;9.43;5.20;;;;;;;14.36;100.00;99158.00;4988312;28;20190;-60
2022/05/17 05:01:07;;;;;;;7.60;5.33;;;;;;;14.45;100.00;99158.88;4984842;28;20198;-59
2022/05/17 05:03:35;;;;;;;8.27;5.50;;;;;;;14.45;100.00;99153.63;5001987;28;20677;-61
2022/05/17 05:06:04;;;;;;;6.20;5.37;;;;;;;14.54;100.00;99157.88;5002006;28;20232;-61
2022/05/17 05:08:31;;;;;;;10.03;6.10;;;;;;;14.57;100.00;99159.34;5004731;28;20193;-61
2022/05/17 05:11:17;;;;;;;8.83;6.07;;;;;;;14.61;100.00;99160.66;5012486;28;20203;-61
2022/05/17 05:13:45;;;;;;;8.67;5.80;;;;;;;14.69;100.00;99162.50;5001982;28;20202;-61
2022/05/17 05:16:14;;;;;;;10.30;6.67;;;;;;;14.77;100.00;99167.78;4984183;28;20257;-61
2022/05/17 05:18:43;;;;;;;7.63;5.20;;;;;;;14.80;100.00;99175.34;5000392;28;20231;-61
2022/05/17 05:21:14;;;;;;;9.50;5.70;;;;;;;14.84;100.00;99168.72;4996809;28;20204;-60
2022/05/17 05:23:43;;;;;;;7.03;5.67;;;;;;;14.94;100.00;99176.47;4992657;28;20235;-60
2022/05/17 05:26:12;;;;;;;10.83;6.07;;;;;;;15.02;100.00;99188.78;5009601;28;20185;-60
2022/05/17 05:28:40;;;;;;;7.60;5.83;;;;;;;15.12;100.00;99191.25;5013278;28;20195;-60
2022/05/17 05:31:07;;;;;;;6.70;5.60;;;;;;;15.22;100.00;99186.63;4995309;28;20287;-61
2022/05/17 05:33:35;;;;;;;8.93;5.83;;;;;;;15.31;100.00;99195.31;5013118;28;20191;-61
2022/05/17 05:36:04;;;;;;;11.50;5.33;;;;;;;15.39;100.00;99189.19;5013219;28;20195;-60
2022/05/17 05:38:33;;;;;;;8.93;5.43;;;;;;;15.46;100.00;99193.63;4995387;28;20223;-60
2022/05/17 05:41:02;;;;;;;11.57;5.40;;;;;;;15.56;100.00;99193.44;5012915;28;20189;-61
2022/05/17 05:43:30;;;;;;;5.83;4.60;;;;;;;15.62;99.75;99187.50;5012619;28;20194;-59
2022/05/17 05:45:57;;;;;;;10.97;5.00;;;;;;;15.70;98.97;99189.28;5012837;28;20198;-61
2022/05/17 05:48:25;;;;;;;5.67;4.30;;;;;;;15.77;98.72;99192.88;5012547;28;20193;-60
2022/05/17 05:50:53;;;;;;;7.83;4.80;;;;;;;15.86;97.11;99198.94;5012522;28;20216;-61
2022/05/17 05:53:21;;;;;;;7.03;5.30;;;;;;;15.96;97.26;99197.94;5011483;28;20212;-60
2022/05/17 05:55:57;;;;;;;5.13;3.87;;;;;;;16.05;97.10;99197.72;5011954;28;20216;-60
2022/05/17 05:58:25;;;;;;;15.63;5.40;;;;;;;16.17;96.25;99195.53;5011792;28;20291;-60
2022/05/17 06:00:53;;;;;;;5.90;5.03;;;;;;;16.31;96.15;99190.50;4994629;28;20656;-60
2022/05/17 06:03:20;;;;;;;10.83;4.73;;;;;;;16.49;95.08;99203.41;5012083;28;20205;-59
2022/05/17 06:05:47;;;;;;;7.33;4.87;;;;;;;16.74;93.98;99204.03;5012107;28;20662;-60
2022/05/17 06:08:16;;;;;;;6.20;4.40;;;;;;;17.02;92.28;99200.88;4989764;28;20191;-58
2022/05/17 06:11:02;;;;;;;7.73;4.20;;;;;;;17.24;91.81;99206.28;5005331;28;20217;-58
2022/05/17 06:13:30;;;;;;;5.87;4.20;;;;;;;17.41;90.74;99207.75;5003003;28;20611;-60
2022/05/17 06:15:57;;;;;;;5.63;4.37;;;;;;;17.54;87.59;99209.75;4994567;28;20623;-58
2022/05/17 06:18:24;;;;;;;6.63;4.43;;;;;;;17.79;87.84;99206.84;5011979;28;20240;-59
2022/05/17 06:20:54;;;;;;;6.63;4.13;;;;;;;18.00;86.32;99202.66;5012052;28;20193;-59
2022/05/17 06:23:22;;;;;;;7.67;4.10;;;;;;;18.24;86.53;99213.88;4994237;28;20301;-58
2022/05/17 06:25:50;;;;;;;9.03;4.10;;;;;;;18.51;80.70;99208.88;5012210;28;20197;-59
2022/05/17 06:28:19;;;;;;;8.70;5.00;;;;;;;18.75;79.21;99205.03;5012315;28;20194;-59
2022/05/17 06:30:47;;;;;;;7.37;4.20;;;;;;;18.93;77.85;99203.75;5012295;28;20197;-60
2022/05/17 06:33:16;;;;;;;8.33;4.40;;;;;;;18.88;77.25;99201.69;5011980;28;20567;-60
2022/05/17 06:35:44;;;;;;;8.17;4.23;;;;;;;18.87;75.23;99205.34;5012928;28;20187;-59
2022/05/17 06:38:13;;;;;;;6.80;4.07;;;;;;;18.84;78.73;99198.59;5016297;28;20253;-60
2022/05/17 06:40:40;;;;;;;5.70;3.70;;;;;;;19.07;78.43;99210.03;5016362;28;20195;-60
2022/05/17 06:43:07;;;;;;;10.17;3.83;;;;;;;19.16;78.15;99201.75;4998017;28;20769;-60
2022/05/17 06:45:37;;;;;;;6.50;4.07;;;;;;;19.18;78.07;99207.66;4998410;28;20656;-60
2022/05/17 06:48:06;;;;;;;6.13;3.80;;;;;;;19.35;76.83;99209.19;5016295;28;20239;-61
2022/05/17 06:50:34;;;;;;;10.07;4.67;;;;;;;19.27;73.00;99207.50;5015515;28;20191;-61
2022/05/17 06:53:03;;;;;;;9.10;4.90;;;;;;;19.24;74.81;99211.34;5015279;28;20214;-60
2022/05/17 06:55:31;;;;;;;9.57;5.47;;;;;;;19.24;74.75;99205.25;4989295;28;20217;-60
2022/05/17 06:58:00;;;;;;;11.20;5.03;;;;;;;19.45;74.68;99214.94;5003816;28;20296;-60
2022/05/17 07:00:27;;;;;;;11.90;5.97;;;;;;;19.46;75.58;99213.94;5008387;28;20204;-60
2022/05/17 07:02:56;;;;;;;8.33;5.23;;;;;;;19.69;73.85;99220.78;4999439;28;20717;-61
2022/05/17 07:05:23;;;;;;;8.17;4.97;;;;;;;19.52;74.66;99221.09;5007425;28;20190;-61
2022/05/17 07:07:50;;;;;;;8.90;4.80;;;;;;;19.25;76.13;99217.47;5015813;28;20195;-59
2022/05/17 07:13:12;;;;;;;9.33;4.87;;;;;;;19.26;76.12;99222.56;5014774;28;20219;-59
2022/05/17 07:15:42;;;;;;;9.53;4.80;;;;;;;19.27;75.36;99218.91;5015627;28;20185;-59
2022/05/17 07:18:13;;;;;;;10.03;5.27;;;;;;;19.22;75.78;99229.25;5015042;28;20225;-59
2022/05/17 07:20:43;;;;;;;8.73;5.73;;;;;;;19.55;73.64;99226.00;5015494;28;20194;-59
2022/05/17 07:23:11;;;;;;;9.50;4.83;;;;;;;19.63;74.14;99225.03;5015099;28;20208;-60
2022/05/17 07:25:41;;;;;;;10.70;4.83;;;;;;;19.86;74.02;99237.16;5015487;28;20185;-59
2022/05/17 07:28:08;;;;;;;8.30;5.50;;;;;;;20.09;70.98;99223.66;5015441;28;20198;-59
2022/05/17 07:30:36;;;;;;;11.03;5.60;;;;;;;20.12;70.45;99227.72;5015360;28;20189;-59
2022/05/17 07:33:03;;;;;;;10.33;5.33;;;;;;;20.23;70.96;99221.84;5014878;28;20238;-60
2022/05/17 07:35:32;;;;;;;5.17;4.60;;;;;;;20.57;70.28;99221.94;5015370;28;20220;-60
2022/05/17 07:38:01;;;;;;;10.13;5.10;;;;;;;20.67;67.90;99217.06;5015257;28;20205;-60
2022/05/17 07:40:30;;;;;;;6.23;5.00;;;;;;;20.67;67.71;99219.69;5015397;28;20184;-60
2022/05/17 07:42:57;;;;;;;13.40;5.87;;;;;;;20.42;69.02;99216.81;5005650;28;20558;-60
2022/05/17 07:45:25;;;;;;;8.30;5.40;;;;;;;20.49;68.12;99220.28;4982604;28;20228;-59
2022/05/17 07:47:53;;;;;;;9.00;4.80;;;;;;;20.43;69.57;99215.78;5004192;28;20288;-59
2022/05/17 07:50:21;;;;;;;11.03;5.50;;;;;;;20.38;70.32;99218.22;5006950;28;20184;-60
2022/05/17 07:52:49;;;;;;;8.97;6.43;;;;;;;20.35;70.04;99214.13;5013929;28;20214;-60
2022/05/17 07:55:16;;;;;;;15.83;6.17;;;;;;;20.57;69.42;99211.31;5014251;28;20186;-60
2022/05/17 07:57:43;;;;;;;10.43;5.90;;;;;;;20.40;70.60;99213.53;5014024;28;20231;-59
2022/05/17 08:00:12;;;;;;;7.23;5.23;;;;;;;20.64;70.15;99220.09;5014357;28;20549;-60
2022/05/17 08:02:39;;;;;;;10.47;6.57;;;;;;;20.71;69.47;99212.97;5014504;28;20211;-59
2022/05/17 08:05:10;;;;;;;13.20;6.80;;;;;;;20.55;70.95;99216.00;5014781;28;20174;-59
2022/05/17 08:07:38;;;;;;;9.83;5.87;;;;;;;20.72;70.29;99213.78;5014859;28;20329;-60
2022/05/17 08:10:07;;;;;;;10.00;6.67;;;;;;;20.83;69.60;99217.72;5014781;28;20252;-60
2022/05/17 08:12:35;;;;;;;9.87;6.70;;;;;;;20.77;68.95;99216.63;5014172;28;20221;-60
2022/05/17 08:15:01;;;;;;;8.87;6.00;;;;;;;20.97;69.92;99213.22;5014228;28;20193;-60
2022/05/17 08:17:29;;;;;;;11.50;6.67;;;;;;;21.26;69.25;99216.47;5014080;28;20344;-60
2022/05/17 08:19:56;;;;;;;10.40;6.97;;;;;;;20.96;69.09;99209.75;5014567;28;20681;-60
2022/05/17 08:22:24;;;;;;;10.20;6.47;;;;;;;21.32;67.85;99221.75;5008622;28;20222;-59
2022/05/17 08:27:40;;;;;;;10.30;6.20;;;;;;;21.57;67.26;99217.63;4994397;28;20191;-59
2022/05/17 08:30:12;;;;;;;11.47;7.47;;;;;;;21.57;64.67;99217.63;4991270;28;20217;-56
2022/05/17 08:35:37;;;;;;;10.43;6.67;;;;;;;21.18;67.98;99226.28;4992882;28;20205;-59
2022/05/17 08:38:04;;;;;;;11.77;6.93;;;;;;;21.39;66.80;99219.91;4989150;28;20253;-59
2022/05/17 08:40:35;;;;;;;12.97;7.17;;;;;;;21.52;68.48;99223.56;4975868;28;20203;-60
2022/05/17 08:43:14;;;;;;;10.80;6.40;;;;;;;21.73;66.85;99219.06;4988864;28;20221;-60
2022/05/17 08:45:55;;;;;;;8.07;5.47;;;;;;;21.92;66.97;99218.16;4992601;28;20198;-60
2022/05/17 08:48:23;;;;;;;9.97;6.97;;;;;;;21.60;66.99;99209.25;4993950;28;20545;-60
2022/05/17 08:50:51;;;;;;;12.47;7.07;;;;;;;21.36;67.65;99214.22;4992275;28;20238;-60
2022/05/17 08:53:20;;;;;;;16.77;7.10;;;;;;;21.58;68.57;99221.94;4977137;28;20222;-60
2022/05/17 08:55:51;;;;;;;10.17;6.17;;;;;;;21.71;67.98;99218.44;4991163;28;20194;-60
2022/05/17 08:58:22;;;;;;;10.20;6.93;;;;;;;21.89;67.27;99218.59;4989611;28;20223;-61
2022/05/17 09:00:52;;;;;;;10.87;6.60;;;;;;;22.07;66.49;99214.44;4991173;28;20194;-61
2022/05/17 09:03:48;;;;;;;11.57;6.93;;;;;;;22.23;66.59;99223.75;4992321;28;20759;-61
2022/05/17 09:06:21;;;;;;;12.63;6.93;;;;;;;21.76;66.97;99215.97;4990286;28;20245;-60
2022/05/17 09:08:54;;;;;;;10.17;6.33;;;;;;;22.00;66.36;99225.06;4991141;28;20197;-60
2022/05/17 09:11:29;;;;;;;9.90;5.43;;;;;;;22.38;65.68;99226.94;4991691;28;20220;-60
2022/05/17 09:14:03;;;;;;;9.87;6.67;;;;;;;22.24;65.10;99222.72;4990893;28;20194;-60
2022/05/17 09:16:35;;;;;;;12.10;6.80;;;;;;;22.46;65.74;99231.22;4992231;28;20666;-60
2022/05/17 09:19:02;;;;;;;9.77;6.43;;;;;;;22.03;65.48;99229.16;4989625;28;20221;-60
2022/05/17 09:21:34;;;;;;;10.33;6.60;;;;;;;22.04;65.77;99225.47;4997038;28;20220;-60
2022/05/17 09:24:05;;;;;;;9.97;6.37;;;;;;;22.45;64.25;99218.13;4989212;28;20209;-60
2022/05/17 09:26:34;;;;;;;10.17;5.70;;;;;;;22.71;63.55;99227.78;4992473;28;20209;-60
2022/05/17 09:29:12;;;;;;;10.33;5.73;;;;;;;22.95;62.44;99223.50;4971374;28;20556;-60
2022/05/17 09:31:39;;;;;;;10.23;6.03;;;;;;;23.06;61.27;99219.31;5000929;28;20234;-60
2022/05/17 09:34:09;;;;;;;12.27;5.77;;;;;;;23.10;61.56;99217.84;4988676;28;20248;-60
2022/05/17 09:36:44;;;;;;;12.87;5.47;;;;;;;23.28;58.97;99218.97;4992825;28;20600;-60
2022/05/17 09:39:12;;;;;;;6.07;4.90;;;;;;;23.36;57.71;99218.63;4988526;28;20205;-61
2022/05/17 09:41:41;;;;;;;8.57;5.40;;;;;;;23.36;58.86;99207.19;4991014;28;20215;-61
2022/05/17 09:44:14;;;;;;;7.27;4.97;;;;;;;23.42;59.17;99204.44;4988227;28;20554;-60
2022/05/17 09:46:45;;;;;;;9.40;5.43;;;;;;;23.36;58.85;99204.53;4991687;28;20191;-61
2022/05/17 09:52:35;;;;;;;9.43;5.60;;;;;;;23.54;57.92;99198.38;4951688;28;20680;-60
2022/05/17 09:55:21;;;;;;;11.77;6.60;;;;;;;23.40;57.67;99205.72;4998082;28;20288;-60
2022/05/17 09:57:57;;;;;;;7.47;5.10;;;;;;;23.83;57.32;99202.16;4992597;28;20200;-60
2022/05/17 10:00:30;;;;;;;10.30;5.63;;;;;;;23.79;56.40;99200.97;4975293;28;20235;-60
2022/05/17 10:03:00;;;;;;;11.00;5.63;;;;;;;23.96;55.76;99198.50;4992501;28;20272;-61
2022/05/17 10:05:43;;;;;;;9.90;5.33;;;;;;;24.14;54.33;99197.69;4992955;28;20265;-60
2022/05/17 10:08:37;;;;;;;9.87;5.20;;;;;;;24.11;54.31;99189.31;4995382;28;20195;-60
2022/05/17 10:11:16;;;;;;;7.93;4.90;;;;;;;24.05;55.80;99180.38;4996454;28;20244;-61
2022/05/17 10:14:01;;;;;;;11.13;5.20;;;;;;;23.86;53.80;99183.03;4994337;28;20288;-60
2022/05/17 10:16:36;;;;;;;8.77;4.87;;;;;;;24.30;53.43;99174.91;5001224;28;20626;-60
2022/05/17 10:19:07;;;;;;;11.90;5.33;;;;;;;24.37;55.24;99174.00;5007700;28;20214;-61
2022/05/17 10:21:40;;;;;;;8.83;6.03;;;;;;;24.51;51.96;99169.25;5003917;28;20213;-61
2022/05/17 10:24:15;;;;;;;7.93;5.40;;;;;;;24.24;54.12;99170.47;5011846;28;20275;-61
2022/05/17 10:26:46;;;;;;;6.07;4.63;;;;;;;24.50;53.99;99165.75;5012328;28;20239;-60
2022/05/17 10:29:38;;;;;;;11.50;4.60;;;;;;;24.74;52.62;99164.00;5012219;28;20331;-61
2022/05/17 10:32:15;;;;;;;7.43;4.37;;;;;;;24.73;52.90;99159.69;5011867;28;20208;-61
2022/05/17 10:34:47;;;;;;;7.43;4.37;;;;;;;24.83;51.22;99159.09;5012141;28;20245;-61
2022/05/17 10:37:19;;;;;;;9.83;4.80;;;;;;;24.83;49.80;99155.63;4994578;28;20194;-61
2022/05/17 10:39:53;;;;;;;6.83;4.40;;;;;;;24.65;52.54;99152.00;5012216;28;20210;-61
2022/05/17 10:42:21;;;;;;;11.03;5.10;;;;;;;24.66;51.49;99158.97;4994222;28;20224;-61
2022/05/17 10:45:11;;;;;;;6.67;4.20;;;;;;;24.57;50.30;99153.13;5012448;28;20200;-61
2022/05/17 10:47:58;;;;;;;5.43;4.23;;;;;;;24.63;51.43;99148.75;5011995;28;20203;-60
2022/05/17 10:50:34;;;;;;;6.17;3.80;;;;;;;24.27;49.85;99150.53;4994297;28;20196;-61
2022/05/17 10:53:24;;;;;;;6.57;4.53;;;;;;;24.46;51.08;99149.41;5011635;28;20762;-61
2022/05/17 10:56:03;;;;;;;8.03;4.10;;;;;;;24.35;50.12;99147.53;4997703;28;20669;-61
2022/05/17 10:58:39;;;;;;;8.23;4.27;;;;;;;24.38;49.75;99140.94;4993411;28;20213;-61
2022/05/17 11:01:15;;;;;;;7.30;4.13;;;;;;;24.78;48.75;99144.84;4982701;28;20294;-60
2022/05/17 11:04:06;;;;;;;6.60;3.97;;;;;;;24.60;48.55;99150.00;4994020;28;20231;-61
2022/05/17 11:06:37;;;;;;;5.33;3.60;;;;;;;24.44;49.37;99140.00;5003256;28;20187;-61
2022/05/17 11:09:13;;;;;;;6.27;4.07;;;;;;;24.32;47.74;99140.81;5004469;28;20691;-61
2022/05/17 11:12:04;;;;;;;5.43;4.00;;;;;;;24.77;48.24;99130.66;4972447;28;20260;-61
2022/05/17 11:14:36;;;;;;;6.80;4.00;;;;;;;24.91;48.92;99129.38;4955234;28;20193;-61
2022/05/17 11:17:13;;;;;;;8.57;3.57;;;;;;;25.22;47.41;99123.09;4972895;28;20200;-61
2022/05/17 11:19:47;;;;;;;4.80;3.73;;;;;;;24.66;48.20;99118.09;4955089;28;20218;-61
2022/05/17 11:22:19;;;;;;;9.20;3.53;;;;;;;25.08;46.52;99118.00;4973795;28;20540;-61
2022/05/17 11:25:19;;;;;;;6.60;3.93;;;;;;;24.80;45.65;99119.53;4976329;28;20534;-61
2022/05/17 11:28:11;;;;;;;7.93;3.53;;;;;;;24.82;46.69;99122.78;4954234;28;20292;-60
2022/05/17 11:30:49;;;;;;;5.53;3.13;;;;;;;24.94;44.88;99121.97;4975573;28;20204;-60
2022/05/17 11:33:38;;;;;;;5.07;2.90;;;;;;;25.01;44.08;99119.97;4976297;28;20196;-60
2022/05/17 11:36:09;;;;;;;4.93;3.37;;;;;;;24.76;45.04;99118.38;4975887;28;20189;-60
2022/05/17 11:38:50;;;;;;;4.07;3.10;;;;;;;25.00;44.30;99116.47;4958438;28;20206;-61
2022/05/17 11:41:21;;;;;;;12.73;3.50;;;;;;;24.99;46.65;99106.06;4975284;28;20222;-61
2022/05/17 11:44:07;;;;;;;5.80;3.30;;;;;;;25.29;45.66;99110.44;4984881;28;20250;-61
2022/05/17 11:46:45;;;;;;;5.67;3.07;;;;;;;25.08;43.11;99106.50;5008205;28;20195;-62
2022/05/17 11:49:45;;;;;;;5.33;2.93;;;;;;;25.20;41.54;99102.78;5014486;28;20198;-60
2022/05/17 11:52:34;;;;;;;8.70;3.07;;;;;;;25.52;42.43;99104.22;5007110;28;20218;-63
2022/05/17 11:55:02;;;;;;;6.90;3.03;;;;;;;25.78;41.43;99102.84;5006324;28;20201;-66
2022/05/17 11:58:03;;;;;;;5.30;3.10;;;;;;;26.01;40.28;99103.78;5014526;28;20206;-64